sensor_id;sensor_type;location;lat;lon;timestamp;pressure;altitude;pressure_sealevel;temperature;humidity
53679;BME280;40119;52.030;4.708;2022-07-29T00:01:44;101878.71;;;16.45;44.32
53679;BME280;40119;52.030;4.708;2022-07-29T00:03:49;101869.86;;;18.35;41.08
53679;BME280;40119;52.030;4.708;2022-07-29T00:05:53;101873.73;;;18.14;41.16
53679;BME280;40119;52.030;4.708;2022-07-29T00:07:58;101874.82;;;20.08;38.40
53679;BME280;40119;52.030;4.708;2022-07-29T00:10:03;101876.48;;;17.63;42.39
53679;BME280;40119;52.030;4.708;2022-07-29T00:12:08;101878.46;;;16.38;43.51
53679;BME280;40119;52.030;4.708;2022-07-29T00:14:12;101868.06;;;19.14;39.83
53679;BME280;40119;52.030;4.708;2022-07-29T00:16:17;101869.18;;;18.53;40.89
53679;BME280;40119;52.030;4.708;2022-07-29T00:18:21;101867.49;;;18.95;40.44
53679;BME280;40119;52.030;4.708;2022-07-29T00:20:25;101862.80;;;18.67;41.19
53679;BME280;40119;52.030;4.708;2022-07-29T00:22:30;101857.93;;;18.26;41.31
53679;BME280;40119;52.030;4.708;2022-07-29T00:24:34;101857.73;;;17.75;42.23
53679;BME280;40119;52.030;4.708;2022-07-29T00:26:39;101855.82;;;18.71;41.09
53679;BME280;40119;52.030;4.708;2022-07-29T00:28:43;101854.23;;;19.22;40.24
53679;BME280;40119;52.030;4.708;2022-07-29T00:30:48;101852.62;;;19.31;40.16
53679;BME280;40119;52.030;4.708;2022-07-29T00:32:52;101854.70;;;17.94;42.29
53679;BME280;40119;52.030;4.708;2022-07-29T00:34:56;101850.78;;;17.72;42.83
53679;BME280;40119;52.030;4.708;2022-07-29T00:37:01;101851.58;;;17.92;42.88
53679;BME280;40119;52.030;4.708;2022-07-29T00:39:05;101849.90;;;16.82;44.21
53679;BME280;40119;52.030;4.708;2022-07-29T00:41:10;101854.63;;;17.23;44.47
53679;BME280;40119;52.030;4.708;2022-07-29T00:43:15;101849.76;;;17.29;44.28
53679;BME280;40119;52.030;4.708;2022-07-29T00:45:21;101850.70;;;16.24;46.35
53679;BME280;40119;52.030;4.708;2022-07-29T00:47:25;101846.62;;;17.19;44.17
53679;BME280;40119;52.030;4.708;2022-07-29T00:49:29;101840.32;;;18.84;41.52
53679;BME280;40119;52.030;4.708;2022-07-29T00:51:35;101840.19;;;18.54;42.00
53679;BME280;40119;52.030;4.708;2022-07-29T00:53:41;101841.42;;;18.45;41.56
53679;BME280;40119;52.030;4.708;2022-07-29T00:55:47;101836.19;;;19.35;39.83
53679;BME280;40119;52.030;4.708;2022-07-29T00:57:52;101841.03;;;18.74;41.55
53679;BME280;40119;52.030;4.708;2022-07-29T00:59:57;101838.34;;;17.86;42.14
53679;BME280;40119;52.030;4.708;2022-07-29T01:02:01;101837.27;;;18.94;40.18
53679;BME280;40119;52.030;4.708;2022-07-29T01:04:06;101836.87;;;18.96;41.04
53679;BME280;40119;52.030;4.708;2022-07-29T01:06:11;101835.80;;;18.27;41.66
53679;BME280;40119;52.030;4.708;2022-07-29T01:08:15;101837.17;;;18.62;41.18
53679;BME280;40119;52.030;4.708;2022-07-29T01:10:22;101840.82;;;16.89;44.11
53679;BME280;40119;52.030;4.708;2022-07-29T01:12:29;101835.40;;;18.58;41.60
53679;BME280;40119;52.030;4.708;2022-07-29T01:14:35;101832.99;;;18.02;42.03
53679;BME280;40119;52.030;4.708;2022-07-29T01:16:45;101831.07;;;18.69;41.08
53679;BME280;40119;52.030;4.708;2022-07-29T01:18:56;101831.87;;;19.37;40.14
53679;BME280;40119;52.030;4.708;2022-07-29T01:21:27;101831.88;;;17.80;42.87
53679;BME280;40119;52.030;4.708;2022-07-29T01:23:52;101830.02;;;17.23;43.61
53679;BME280;40119;52.030;4.708;2022-07-29T01:26:15;101828.50;;;17.69;42.78
53679;BME280;40119;52.030;4.708;2022-07-29T01:28:52;101828.60;;;16.72;44.19
53679;BME280;40119;52.030;4.708;2022-07-29T01:31:06;101830.79;;;16.14;45.44
53679;BME280;40119;52.030;4.708;2022-07-29T01:33:16;101828.46;;;17.00;44.01
53679;BME280;40119;52.030;4.708;2022-07-29T01:35:31;101826.48;;;18.04;42.98
53679;BME280;40119;52.030;4.708;2022-07-29T01:37:43;101823.82;;;18.68;41.34
53679;BME280;40119;52.030;4.708;2022-07-29T01:39:51;101825.71;;;17.39;43.39
53679;BME280;40119;52.030;4.708;2022-07-29T01:41:59;101828.74;;;15.32;46.56
53679;BME280;40119;52.030;4.708;2022-07-29T01:44:13;101825.08;;;17.66;43.58
53679;BME280;40119;52.030;4.708;2022-07-29T01:46:23;101825.23;;;17.65;43.60
53679;BME280;40119;52.030;4.708;2022-07-29T01:48:34;101822.12;;;18.81;40.97
53679;BME280;40119;52.030;4.708;2022-07-29T01:50:47;101818.67;;;19.46;39.57
53679;BME280;40119;52.030;4.708;2022-07-29T01:52:56;101821.52;;;17.64;43.35
53679;BME280;40119;52.030;4.708;2022-07-29T01:55:07;101821.55;;;16.77;45.00
53679;BME280;40119;52.030;4.708;2022-07-29T01:57:16;101817.35;;;17.73;43.04
53679;BME280;40119;52.030;4.708;2022-07-29T01:59:21;101814.74;;;17.95;42.91
53679;BME280;40119;52.030;4.708;2022-07-29T02:01:30;101813.77;;;19.46;40.79
53679;BME280;40119;52.030;4.708;2022-07-29T02:03:36;101807.77;;;18.65;41.65
53679;BME280;40119;52.030;4.708;2022-07-29T02:05:44;101805.77;;;18.64;41.56
53679;BME280;40119;52.030;4.708;2022-07-29T02:07:52;101809.10;;;18.58;41.63
53679;BME280;40119;52.030;4.708;2022-07-29T02:10:00;101808.08;;;18.48;42.08
53679;BME280;40119;52.030;4.708;2022-07-29T02:12:07;101809.29;;;16.01;46.22
53679;BME280;40119;52.030;4.708;2022-07-29T02:14:14;101804.74;;;17.88;42.92
53679;BME280;40119;52.030;4.708;2022-07-29T02:16:21;101804.59;;;18.49;41.66
53679;BME280;40119;52.030;4.708;2022-07-29T02:18:28;101805.07;;;18.98;40.83
53679;BME280;40119;52.030;4.708;2022-07-29T02:20:35;101803.50;;;18.66;41.59
53679;BME280;40119;52.030;4.708;2022-07-29T02:22:41;101807.27;;;17.57;43.77
53679;BME280;40119;52.030;4.708;2022-07-29T02:24:48;101802.64;;;19.01;41.62
53679;BME280;40119;52.030;4.708;2022-07-29T02:26:55;101803.77;;;17.77;44.24
53679;BME280;40119;52.030;4.708;2022-07-29T02:29:01;101805.71;;;15.99;46.32
53679;BME280;40119;52.030;4.708;2022-07-29T02:31:07;101801.41;;;17.87;43.32
53679;BME280;40119;52.030;4.708;2022-07-29T02:33:15;101796.72;;;18.12;42.78
53679;BME280;40119;52.030;4.708;2022-07-29T02:35:21;101798.71;;;18.20;42.33
53679;BME280;40119;52.030;4.708;2022-07-29T02:37:27;101803.84;;;17.29;44.31
53679;BME280;40119;52.030;4.708;2022-07-29T02:39:33;101807.90;;;15.62;47.54
53679;BME280;40119;52.030;4.708;2022-07-29T02:41:41;101804.65;;;17.58;45.12
53679;BME280;40119;52.030;4.708;2022-07-29T02:43:52;101800.91;;;17.96;44.15
53679;BME280;40119;52.030;4.708;2022-07-29T02:45:59;101797.01;;;18.37;43.58
53679;BME280;40119;52.030;4.708;2022-07-29T02:48:13;101796.01;;;19.02;41.93
53679;BME280;40119;52.030;4.708;2022-07-29T02:50:22;101792.31;;;18.10;43.29
53679;BME280;40119;52.030;4.708;2022-07-29T02:52:35;101793.14;;;18.91;41.87
53679;BME280;40119;52.030;4.708;2022-07-29T02:54:45;101795.50;;;17.58;44.04
53679;BME280;40119;52.030;4.708;2022-07-29T02:56:52;101794.64;;;19.54;40.48
53679;BME280;40119;52.030;4.708;2022-07-29T02:59:03;101799.76;;;17.61;43.24
53679;BME280;40119;52.030;4.708;2022-07-29T03:01:12;101794.40;;;19.53;40.39
53679;BME280;40119;52.030;4.708;2022-07-29T03:03:18;101792.52;;;18.88;40.69
53679;BME280;40119;52.030;4.708;2022-07-29T03:05:23;101789.52;;;19.02;41.30
53679;BME280;40119;52.030;4.708;2022-07-29T03:07:29;101791.71;;;17.97;41.81
53679;BME280;40119;52.030;4.708;2022-07-29T03:09:36;101789.85;;;18.55;41.84
53679;BME280;40119;52.030;4.708;2022-07-29T03:11:41;101790.33;;;18.67;41.41
53679;BME280;40119;52.030;4.708;2022-07-29T03:13:47;101794.02;;;18.06;41.68
53679;BME280;40119;52.030;4.708;2022-07-29T03:15:52;101793.74;;;17.80;41.70
53679;BME280;40119;52.030;4.708;2022-07-29T03:17:58;101792.17;;;17.71;42.55
53679;BME280;40119;52.030;4.708;2022-07-29T03:20:04;101789.83;;;18.44;40.65
53679;BME280;40119;52.030;4.708;2022-07-29T03:22:09;101789.08;;;18.17;41.36
53679;BME280;40119;52.030;4.708;2022-07-29T03:24:25;101787.42;;;17.58;42.46
53679;BME280;40119;52.030;4.708;2022-07-29T03:26:29;101784.57;;;16.67;43.90
53679;BME280;40119;52.030;4.708;2022-07-29T03:28:34;101779.87;;;20.03;39.25
53679;BME280;40119;52.030;4.708;2022-07-29T03:30:38;101785.69;;;17.26;43.59
53679;BME280;40119;52.030;4.708;2022-07-29T03:32:43;101782.52;;;17.39;43.22
53679;BME280;40119;52.030;4.708;2022-07-29T03:34:48;101781.46;;;17.12;44.02
53679;BME280;40119;52.030;4.708;2022-07-29T03:36:53;101780.73;;;17.87;42.61
53679;BME280;40119;52.030;4.708;2022-07-29T03:38:57;101776.13;;;17.88;42.93
53679;BME280;40119;52.030;4.708;2022-07-29T03:41:07;101778.58;;;17.12;43.83
53679;BME280;40119;52.030;4.708;2022-07-29T03:43:13;101773.56;;;18.56;41.50
53679;BME280;40119;52.030;4.708;2022-07-29T03:45:20;101773.81;;;18.07;42.46
53679;BME280;40119;52.030;4.708;2022-07-29T03:47:27;101774.45;;;18.29;42.82
53679;BME280;40119;52.030;4.708;2022-07-29T03:49:36;101780.37;;;16.73;44.99
53679;BME280;40119;52.030;4.708;2022-07-29T03:51:42;101771.86;;;18.20;42.03
53679;BME280;40119;52.030;4.708;2022-07-29T03:53:47;101777.83;;;17.64;43.45
53679;BME280;40119;52.030;4.708;2022-07-29T03:55:54;101771.30;;;18.41;41.73
53679;BME280;40119;52.030;4.708;2022-07-29T03:58:01;101770.72;;;18.61;41.01
53679;BME280;40119;52.030;4.708;2022-07-29T04:00:07;101773.27;;;19.39;40.03
53679;BME280;40119;52.030;4.708;2022-07-29T04:02:13;101775.27;;;18.81;40.34
53679;BME280;40119;52.030;4.708;2022-07-29T04:04:17;101774.75;;;18.22;41.01
53679;BME280;40119;52.030;4.708;2022-07-29T04:06:22;101775.60;;;18.81;40.48
53679;BME280;40119;52.030;4.708;2022-07-29T04:08:26;101780.03;;;16.96;43.36
53679;BME280;40119;52.030;4.708;2022-07-29T04:10:30;101782.80;;;15.87;44.64
53679;BME280;40119;52.030;4.708;2022-07-29T04:12:35;101782.76;;;15.90;45.94
53679;BME280;40119;52.030;4.708;2022-07-29T04:14:40;101781.26;;;15.85;46.10
53679;BME280;40119;52.030;4.708;2022-07-29T04:16:45;101774.62;;;18.60;41.07
53679;BME280;40119;52.030;4.708;2022-07-29T04:18:50;101777.21;;;17.68;42.19
53679;BME280;40119;52.030;4.708;2022-07-29T04:20:54;101783.52;;;17.40;42.57
53679;BME280;40119;52.030;4.708;2022-07-29T04:22:59;101781.61;;;17.60;42.19
53679;BME280;40119;52.030;4.708;2022-07-29T04:25:03;101779.63;;;18.90;39.17
53679;BME280;40119;52.030;4.708;2022-07-29T04:27:08;101778.52;;;19.09;39.74
53679;BME280;40119;52.030;4.708;2022-07-29T04:29:12;101777.39;;;19.67;38.46
53679;BME280;40119;52.030;4.708;2022-07-29T04:31:17;101776.79;;;19.71;37.73
53679;BME280;40119;52.030;4.708;2022-07-29T04:33:21;101777.95;;;17.66;40.91
53679;BME280;40119;52.030;4.708;2022-07-29T04:35:25;101778.31;;;18.19;40.57
53679;BME280;40119;52.030;4.708;2022-07-29T04:37:30;101778.44;;;17.56;41.53
53679;BME280;40119;52.030;4.708;2022-07-29T04:39:35;101777.26;;;17.51;41.87
53679;BME280;40119;52.030;4.708;2022-07-29T04:41:39;101780.61;;;17.78;41.17
53679;BME280;40119;52.030;4.708;2022-07-29T04:43:44;101785.68;;;15.58;44.77
53679;BME280;40119;52.030;4.708;2022-07-29T04:45:48;101782.60;;;17.82;41.39
53679;BME280;40119;52.030;4.708;2022-07-29T04:47:52;101783.73;;;18.46;40.37
53679;BME280;40119;52.030;4.708;2022-07-29T04:49:57;101786.03;;;17.18;42.31
53679;BME280;40119;52.030;4.708;2022-07-29T04:52:01;101785.31;;;18.39;40.37
53679;BME280;40119;52.030;4.708;2022-07-29T04:54:06;101783.38;;;19.19;39.02
53679;BME280;40119;52.030;4.708;2022-07-29T04:56:10;101783.94;;;18.07;41.10
53679;BME280;40119;52.030;4.708;2022-07-29T04:58:14;101783.70;;;17.72;41.73
53679;BME280;40119;52.030;4.708;2022-07-29T05:00:19;101778.23;;;17.54;41.75
53679;BME280;40119;52.030;4.708;2022-07-29T05:02:23;101776.55;;;18.99;39.34
53679;BME280;40119;52.030;4.708;2022-07-29T05:04:28;101776.70;;;16.70;42.67
53679;BME280;40119;52.030;4.708;2022-07-29T05:06:32;101772.08;;;18.49;40.24
53679;BME280;40119;52.030;4.708;2022-07-29T05:08:37;101777.66;;;16.97;43.04
53679;BME280;40119;52.030;4.708;2022-07-29T05:10:41;101775.96;;;17.25;42.44
53679;BME280;40119;52.030;4.708;2022-07-29T05:12:47;101770.04;;;19.60;38.88
53679;BME280;40119;52.030;4.708;2022-07-29T05:14:51;101772.06;;;19.09;39.65
53679;BME280;40119;52.030;4.708;2022-07-29T05:16:55;101773.03;;;18.60;40.06
53679;BME280;40119;52.030;4.708;2022-07-29T05:19:00;101774.57;;;19.03;39.91
53679;BME280;40119;52.030;4.708;2022-07-29T05:21:04;101778.29;;;17.26;43.59
53679;BME280;40119;52.030;4.708;2022-07-29T05:23:09;101781.33;;;17.73;42.32
53679;BME280;40119;52.030;4.708;2022-07-29T05:25:13;101784.17;;;17.60;42.42
53679;BME280;40119;52.030;4.708;2022-07-29T05:27:17;101784.56;;;17.72;42.14
53679;BME280;40119;52.030;4.708;2022-07-29T05:29:22;101786.92;;;17.43;42.51
53679;BME280;40119;52.030;4.708;2022-07-29T05:31:31;101785.44;;;17.85;41.59
53679;BME280;40119;52.030;4.708;2022-07-29T05:33:36;101786.63;;;19.51;39.08
53679;BME280;40119;52.030;4.708;2022-07-29T05:35:40;101785.79;;;19.72;38.92
53679;BME280;40119;52.030;4.708;2022-07-29T05:37:45;101787.89;;;18.86;39.92
53679;BME280;40119;52.030;4.708;2022-07-29T05:39:49;101788.79;;;18.93;40.06
53679;BME280;40119;52.030;4.708;2022-07-29T05:41:54;101792.96;;;19.28;39.54
53679;BME280;40119;52.030;4.708;2022-07-29T05:43:58;101796.44;;;17.74;42.40
53679;BME280;40119;52.030;4.708;2022-07-29T05:46:03;101803.71;;;19.40;38.97
53679;BME280;40119;52.030;4.708;2022-07-29T05:48:07;101804.87;;;16.86;42.96
53679;BME280;40119;52.030;4.708;2022-07-29T05:50:11;101803.34;;;17.80;41.38
53679;BME280;40119;52.030;4.708;2022-07-29T05:52:16;101798.71;;;17.73;41.87
53679;BME280;40119;52.030;4.708;2022-07-29T05:54:20;101798.38;;;18.36;41.04
53679;BME280;40119;52.030;4.708;2022-07-29T05:56:25;101797.01;;;18.40;41.03
53679;BME280;40119;52.030;4.708;2022-07-29T05:58:29;101798.54;;;17.59;42.81
53679;BME280;40119;52.030;4.708;2022-07-29T06:00:34;101797.86;;;18.58;40.42
53679;BME280;40119;52.030;4.708;2022-07-29T06:02:38;101799.46;;;18.02;41.26
53679;BME280;40119;52.030;4.708;2022-07-29T06:04:43;101799.92;;;18.88;39.83
53679;BME280;40119;52.030;4.708;2022-07-29T06:06:48;101802.17;;;19.33;39.38
53679;BME280;40119;52.030;4.708;2022-07-29T06:08:52;101804.70;;;18.28;40.57
53679;BME280;40119;52.030;4.708;2022-07-29T06:10:56;101806.07;;;19.13;39.43
53679;BME280;40119;52.030;4.708;2022-07-29T06:13:01;101808.78;;;19.39;38.96
53679;BME280;40119;52.030;4.708;2022-07-29T06:15:06;101804.39;;;19.95;37.42
53679;BME280;40119;52.030;4.708;2022-07-29T06:17:11;101807.75;;;20.56;37.02
53679;BME280;40119;52.030;4.708;2022-07-29T06:19:15;101800.04;;;21.16;36.49
53679;BME280;40119;52.030;4.708;2022-07-29T06:21:19;101805.73;;;19.78;38.02
53679;BME280;40119;52.030;4.708;2022-07-29T06:23:24;101811.13;;;21.68;35.63
53679;BME280;40119;52.030;4.708;2022-07-29T06:25:28;101807.16;;;21.16;36.13
53679;BME280;40119;52.030;4.708;2022-07-29T06:27:33;101806.68;;;21.38;35.54
53679;BME280;40119;52.030;4.708;2022-07-29T06:29:38;101810.22;;;21.41;36.16
53679;BME280;40119;52.030;4.708;2022-07-29T06:31:42;101808.65;;;22.02;34.81
53679;BME280;40119;52.030;4.708;2022-07-29T06:33:47;101811.58;;;21.82;34.79
53679;BME280;40119;52.030;4.708;2022-07-29T06:35:51;101804.87;;;23.84;31.71
53679;BME280;40119;52.030;4.708;2022-07-29T06:37:56;101805.23;;;24.05;31.58
53679;BME280;40119;52.030;4.708;2022-07-29T06:40:00;101804.65;;;24.35;30.23
53679;BME280;40119;52.030;4.708;2022-07-29T06:42:10;101801.53;;;25.68;29.30
53679;BME280;40119;52.030;4.708;2022-07-29T06:44:14;101801.65;;;23.69;31.18
53679;BME280;40119;52.030;4.708;2022-07-29T06:46:19;101802.40;;;22.82;31.99
53679;BME280;40119;52.030;4.708;2022-07-29T06:48:24;101807.95;;;21.30;34.13
53679;BME280;40119;52.030;4.708;2022-07-29T06:50:28;101816.38;;;19.49;37.10
53679;BME280;40119;52.030;4.708;2022-07-29T06:52:32;101816.91;;;21.22;35.85
53679;BME280;40119;52.030;4.708;2022-07-29T06:54:37;101815.01;;;21.61;35.81
53679;BME280;40119;52.030;4.708;2022-07-29T06:56:41;101814.60;;;22.11;34.79
53679;BME280;40119;52.030;4.708;2022-07-29T06:58:46;101820.94;;;21.44;36.35
53679;BME280;40119;52.030;4.708;2022-07-29T07:00:51;101821.44;;;20.02;37.52
53679;BME280;40119;52.030;4.708;2022-07-29T07:02:56;101822.27;;;20.69;36.79
53679;BME280;40119;52.030;4.708;2022-07-29T07:05:00;101827.94;;;19.35;38.66
53679;BME280;40119;52.030;4.708;2022-07-29T07:07:04;101823.60;;;22.26;34.94
53679;BME280;40119;52.030;4.708;2022-07-29T07:09:09;101823.91;;;20.83;36.97
53679;BME280;40119;52.030;4.708;2022-07-29T07:11:13;101825.67;;;19.79;38.24
53679;BME280;40119;52.030;4.708;2022-07-29T07:13:18;101830.63;;;20.75;37.60
53679;BME280;40119;52.030;4.708;2022-07-29T07:15:22;101835.68;;;20.38;37.87
53679;BME280;40119;52.030;4.708;2022-07-29T07:17:26;101842.37;;;19.65;39.40
53679;BME280;40119;52.030;4.708;2022-07-29T07:19:31;101842.66;;;21.59;36.64
53679;BME280;40119;52.030;4.708;2022-07-29T07:21:35;101838.22;;;21.78;35.50
53679;BME280;40119;52.030;4.708;2022-07-29T07:23:40;101836.51;;;21.87;34.72
53679;BME280;40119;52.030;4.708;2022-07-29T07:25:45;101840.03;;;21.76;35.62
53679;BME280;40119;52.030;4.708;2022-07-29T07:27:49;101839.76;;;22.67;33.96
53679;BME280;40119;52.030;4.708;2022-07-29T07:29:54;101839.68;;;21.60;35.46
53679;BME280;40119;52.030;4.708;2022-07-29T07:31:58;101840.54;;;23.67;32.69
53679;BME280;40119;52.030;4.708;2022-07-29T07:34:02;101842.35;;;22.38;33.65
53679;BME280;40119;52.030;4.708;2022-07-29T07:36:07;101840.60;;;22.60;33.72
53679;BME280;40119;52.030;4.708;2022-07-29T07:38:11;101837.45;;;23.44;32.77
53679;BME280;40119;52.030;4.708;2022-07-29T07:40:16;101838.28;;;24.50;32.08
53679;BME280;40119;52.030;4.708;2022-07-29T07:42:20;101838.98;;;21.66;35.49
53679;BME280;40119;52.030;4.708;2022-07-29T07:44:24;101836.91;;;23.29;33.47
53679;BME280;40119;52.030;4.708;2022-07-29T07:46:34;101836.37;;;24.27;32.48
53679;BME280;40119;52.030;4.708;2022-07-29T07:48:38;101837.76;;;23.98;32.89
53679;BME280;40119;52.030;4.708;2022-07-29T07:50:42;101837.72;;;23.60;32.57
53679;BME280;40119;52.030;4.708;2022-07-29T07:52:49;101835.46;;;22.79;33.47
53679;BME280;40119;52.030;4.708;2022-07-29T07:54:53;101838.61;;;23.41;32.50
53679;BME280;40119;52.030;4.708;2022-07-29T07:56:58;101838.84;;;21.67;34.66
53679;BME280;40119;52.030;4.708;2022-07-29T07:59:02;101835.17;;;23.04;32.99
53679;BME280;40119;52.030;4.708;2022-07-29T08:01:07;101834.85;;;23.42;33.00
53679;BME280;40119;52.030;4.708;2022-07-29T08:03:11;101836.08;;;24.15;32.14
53679;BME280;40119;52.030;4.708;2022-07-29T08:05:16;101830.55;;;23.37;31.97
53679;BME280;40119;52.030;4.708;2022-07-29T08:07:20;101827.70;;;22.81;33.95
53679;BME280;40119;52.030;4.708;2022-07-29T08:09:27;101825.58;;;23.65;31.53
53679;BME280;40119;52.030;4.708;2022-07-29T08:11:32;101824.87;;;22.38;32.79
53679;BME280;40119;52.030;4.708;2022-07-29T08:13:41;101826.43;;;25.11;29.92
53679;BME280;40119;52.030;4.708;2022-07-29T08:15:47;101829.32;;;23.80;31.18
53679;BME280;40119;52.030;4.708;2022-07-29T08:17:52;101828.34;;;23.74;32.36
53679;BME280;40119;52.030;4.708;2022-07-29T08:19:56;101827.53;;;24.70;30.99
53679;BME280;40119;52.030;4.708;2022-07-29T08:22:01;101834.78;;;22.09;33.55
53679;BME280;40119;52.030;4.708;2022-07-29T08:24:06;101831.07;;;22.49;32.59
53679;BME280;40119;52.030;4.708;2022-07-29T08:26:11;101833.46;;;21.46;34.17
53679;BME280;40119;52.030;4.708;2022-07-29T08:28:17;101829.42;;;22.76;32.46
53679;BME280;40119;52.030;4.708;2022-07-29T08:30:21;101829.71;;;22.34;32.88
53679;BME280;40119;52.030;4.708;2022-07-29T08:32:26;101829.70;;;21.60;33.71
53679;BME280;40119;52.030;4.708;2022-07-29T08:34:30;101831.89;;;25.09;30.46
53679;BME280;40119;52.030;4.708;2022-07-29T08:36:35;101838.96;;;23.59;31.56
53679;BME280;40119;52.030;4.708;2022-07-29T08:38:40;101841.85;;;23.45;31.96
53679;BME280;40119;52.030;4.708;2022-07-29T08:40:45;101843.89;;;24.20;30.92
53679;BME280;40119;52.030;4.708;2022-07-29T08:42:50;101844.07;;;25.05;30.18
53679;BME280;40119;52.030;4.708;2022-07-29T08:44:55;101840.90;;;22.72;32.30
53679;BME280;40119;52.030;4.708;2022-07-29T08:47:01;101841.35;;;22.22;34.12
53679;BME280;40119;52.030;4.708;2022-07-29T08:49:05;101843.08;;;22.62;33.36
53679;BME280;40119;52.030;4.708;2022-07-29T08:51:14;101840.35;;;22.48;33.66
53679;BME280;40119;52.030;4.708;2022-07-29T08:53:19;101841.63;;;24.77;31.01
53679;BME280;40119;52.030;4.708;2022-07-29T08:55:23;101846.58;;;22.10;34.32
53679;BME280;40119;52.030;4.708;2022-07-29T08:57:28;101843.09;;;22.72;32.71
53679;BME280;40119;52.030;4.708;2022-07-29T08:59:33;101845.67;;;23.77;32.39
53679;BME280;40119;52.030;4.708;2022-07-29T09:01:38;101844.08;;;22.96;33.08
53679;BME280;40119;52.030;4.708;2022-07-29T09:03:45;101841.80;;;23.89;33.06
53679;BME280;40119;52.030;4.708;2022-07-29T09:05:50;101835.15;;;23.83;32.11
53679;BME280;40119;52.030;4.708;2022-07-29T09:07:55;101833.10;;;24.64;31.76
53679;BME280;40119;52.030;4.708;2022-07-29T09:09:59;101830.77;;;24.82;30.72
53679;BME280;40119;52.030;4.708;2022-07-29T09:12:04;101835.38;;;21.37;34.76
53679;BME280;40119;52.030;4.708;2022-07-29T09:14:11;101833.97;;;23.56;32.57
53679;BME280;40119;52.030;4.708;2022-07-29T09:16:15;101832.01;;;23.21;32.64
53679;BME280;40119;52.030;4.708;2022-07-29T09:18:37;101830.60;;;24.23;31.54
53679;BME280;40119;52.030;4.708;2022-07-29T09:20:52;101830.61;;;23.96;32.06
53679;BME280;40119;52.030;4.708;2022-07-29T09:22:56;101831.60;;;25.24;30.65
53679;BME280;40119;52.030;4.708;2022-07-29T09:25:00;101831.10;;;24.12;31.19
53679;BME280;40119;52.030;4.708;2022-07-29T09:27:11;101829.77;;;23.25;33.21
53679;BME280;40119;52.030;4.708;2022-07-29T09:29:23;101827.75;;;22.43;33.90
53679;BME280;40119;52.030;4.708;2022-07-29T09:31:33;101824.87;;;22.78;33.84
53679;BME280;40119;52.030;4.708;2022-07-29T09:33:38;101826.38;;;22.55;33.37
53679;BME280;40119;52.030;4.708;2022-07-29T09:35:43;101825.58;;;22.19;34.37
53679;BME280;40119;52.030;4.708;2022-07-29T09:37:48;101825.38;;;23.59;33.52
53679;BME280;40119;52.030;4.708;2022-07-29T09:39:53;101827.71;;;24.61;31.93
53679;BME280;40119;52.030;4.708;2022-07-29T09:42:01;101827.78;;;24.63;31.89
53679;BME280;40119;52.030;4.708;2022-07-29T09:44:05;101832.89;;;25.59;30.00
53679;BME280;40119;52.030;4.708;2022-07-29T09:46:11;101833.51;;;26.26;29.96
53679;BME280;40119;52.030;4.708;2022-07-29T09:48:17;101837.84;;;22.27;35.14
53679;BME280;40119;52.030;4.708;2022-07-29T09:50:22;101836.92;;;25.41;31.66
53679;BME280;40119;52.030;4.708;2022-07-29T09:52:26;101836.06;;;24.94;30.73
53679;BME280;40119;52.030;4.708;2022-07-29T09:54:31;101832.70;;;26.41;30.21
53679;BME280;40119;52.030;4.708;2022-07-29T09:56:38;101834.53;;;24.26;31.78
53679;BME280;40119;52.030;4.708;2022-07-29T09:58:43;101831.38;;;25.44;31.31
53679;BME280;40119;52.030;4.708;2022-07-29T10:00:49;101830.51;;;26.36;30.78
53679;BME280;40119;52.030;4.708;2022-07-29T10:03:00;101831.00;;;22.96;34.67
53679;BME280;40119;52.030;4.708;2022-07-29T10:05:06;101832.62;;;23.67;33.96
53679;BME280;40119;52.030;4.708;2022-07-29T10:07:19;101833.40;;;22.14;35.78
53679;BME280;40119;52.030;4.708;2022-07-29T10:09:24;101834.00;;;24.23;33.94
53679;BME280;40119;52.030;4.708;2022-07-29T10:11:28;101832.77;;;25.52;31.99
53679;BME280;40119;52.030;4.708;2022-07-29T10:13:32;101827.85;;;22.02;34.62
53679;BME280;40119;52.030;4.708;2022-07-29T10:15:38;101827.56;;;23.74;32.65
53679;BME280;40119;52.030;4.708;2022-07-29T10:17:44;101824.01;;;24.76;31.11
53679;BME280;40119;52.030;4.708;2022-07-29T10:19:49;101821.73;;;24.32;30.95
53679;BME280;40119;52.030;4.708;2022-07-29T10:21:54;101823.80;;;25.00;31.65
53679;BME280;40119;52.030;4.708;2022-07-29T10:23:59;101828.42;;;24.27;30.54
53679;BME280;40119;52.030;4.708;2022-07-29T10:26:04;101829.40;;;25.15;29.45
53679;BME280;40119;52.030;4.708;2022-07-29T10:28:09;101825.21;;;26.12;29.46
53679;BME280;40119;52.030;4.708;2022-07-29T10:30:14;101832.41;;;23.83;32.14
53679;BME280;40119;52.030;4.708;2022-07-29T10:32:31;101827.36;;;24.96;30.79
53679;BME280;40119;52.030;4.708;2022-07-29T10:34:55;101831.07;;;21.68;34.22
53679;BME280;40119;52.030;4.708;2022-07-29T10:37:08;101827.14;;;24.46;30.73
53679;BME280;40119;52.030;4.708;2022-07-29T10:39:30;101828.37;;;24.10;31.79
53679;BME280;40119;52.030;4.708;2022-07-29T10:41:52;101822.83;;;25.67;29.53
53679;BME280;40119;52.030;4.708;2022-07-29T10:44:02;101821.57;;;26.03;30.49
53679;BME280;40119;52.030;4.708;2022-07-29T10:46:08;101818.31;;;23.60;32.32
53679;BME280;40119;52.030;4.708;2022-07-29T10:48:13;101819.28;;;23.93;32.62
53679;BME280;40119;52.030;4.708;2022-07-29T10:50:18;101813.33;;;25.71;30.45
53679;BME280;40119;52.030;4.708;2022-07-29T10:52:22;101812.39;;;25.96;29.35
53679;BME280;40119;52.030;4.708;2022-07-29T10:54:59;101816.83;;;22.19;34.63
53679;BME280;40119;52.030;4.708;2022-07-29T10:57:12;101807.70;;;26.23;29.81
53679;BME280;40119;52.030;4.708;2022-07-29T10:59:24;101813.88;;;24.30;31.80
53679;BME280;40119;52.030;4.708;2022-07-29T11:01:29;101809.40;;;24.15;32.10